sensor_id;sensor_type;location;lat;lon;timestamp;P1;durP1;ratioP1;P2;durP2;ratioP2
39176;SDS011;24904;52.208;21.192;2022-11-20T00:03:15;55.30;;;28.50;;
39176;SDS011;24904;52.208;21.192;2022-11-20T00:08:18;53.40;;;27.30;;
39176;SDS011;24904;52.208;21.192;2022-11-20T00:13:21;58.80;;;27.10;;
39176;SDS011;24904;52.208;21.192;2022-11-20T00:18:25;51.00;;;26.60;;
39176;SDS011;24904;52.208;21.192;2022-11-20T00:23:28;56.50;;;26.50;;
39176;SDS011;24904;52.208;21.192;2022-11-20T00:28:32;57.80;;;27.80;;
39176;SDS011;24904;52.208;21.192;2022-11-20T00:33:35;59.00;;;28.90;;
39176;SDS011;24904;52.208;21.192;2022-11-20T00:38:38;59.70;;;28.70;;
39176;SDS011;24904;52.208;21.192;2022-11-20T00:43:41;61.00;;;28.50;;
39176;SDS011;24904;52.208;21.192;2022-11-20T00:48:45;53.30;;;27.10;;
39176;SDS011;24904;52.208;21.192;2022-11-20T00:53:48;51.70;;;27.80;;
39176;SDS011;24904;52.208;21.192;2022-11-20T00:58:51;55.60;;;28.70;;
39176;SDS011;24904;52.208;21.192;2022-11-20T01:03:55;54.70;;;28.60;;
39176;SDS011;24904;52.208;21.192;2022-11-20T01:09:00;58.00;;;29.30;;
39176;SDS011;24904;52.208;21.192;2022-11-20T01:14:05;54.80;;;27.60;;
39176;SDS011;24904;52.208;21.192;2022-11-20T01:24:29;55.30;;;27.90;;
39176;SDS011;24904;52.208;21.192;2022-11-20T01:29:32;53.10;;;27.10;;
39176;SDS011;24904;52.208;21.192;2022-11-20T01:34:35;54.70;;;27.10;;
39176;SDS011;24904;52.208;21.192;2022-11-20T01:39:38;53.20;;;27.10;;
39176;SDS011;24904;52.208;21.192;2022-11-20T01:50:04;56.60;;;27.30;;
39176;SDS011;24904;52.208;21.192;2022-11-20T01:55:15;48.20;;;25.90;;
39176;SDS011;24904;52.208;21.192;2022-11-20T02:00:23;57.10;;;28.10;;
39176;SDS011;24904;52.208;21.192;2022-11-20T02:05:28;57.70;;;25.80;;
39176;SDS011;24904;52.208;21.192;2022-11-20T02:10:37;57.90;;;26.10;;
39176;SDS011;24904;52.208;21.192;2022-11-20T02:15:40;47.40;;;26.20;;
39176;SDS011;24904;52.208;21.192;2022-11-20T02:20:44;45.50;;;23.90;;
39176;SDS011;24904;52.208;21.192;2022-11-20T02:25:49;46.80;;;23.30;;
39176;SDS011;24904;52.208;21.192;2022-11-20T02:30:53;47.30;;;25.80;;
39176;SDS011;24904;52.208;21.192;2022-11-20T02:35:56;51.30;;;27.00;;
39176;SDS011;24904;52.208;21.192;2022-11-20T02:40:59;51.40;;;26.20;;
39176;SDS011;24904;52.208;21.192;2022-11-20T02:46:02;45.50;;;26.30;;
39176;SDS011;24904;52.208;21.192;2022-11-20T02:51:05;50.10;;;25.70;;
39176;SDS011;24904;52.208;21.192;2022-11-20T02:56:08;56.40;;;27.70;;
39176;SDS011;24904;52.208;21.192;2022-11-20T03:01:11;53.90;;;27.70;;
39176;SDS011;24904;52.208;21.192;2022-11-20T03:06:14;52.00;;;28.00;;
39176;SDS011;24904;52.208;21.192;2022-11-20T03:11:17;51.80;;;25.50;;
39176;SDS011;24904;52.208;21.192;2022-11-20T03:16:20;53.80;;;27.90;;
39176;SDS011;24904;52.208;21.192;2022-11-20T03:21:24;48.80;;;26.90;;
39176;SDS011;24904;52.208;21.192;2022-11-20T03:26:28;51.30;;;25.80;;
39176;SDS011;24904;52.208;21.192;2022-11-20T03:31:31;52.80;;;27.70;;
39176;SDS011;24904;52.208;21.192;2022-11-20T03:36:37;49.70;;;27.60;;
39176;SDS011;24904;52.208;21.192;2022-11-20T03:41:41;48.90;;;26.20;;
39176;SDS011;24904;52.208;21.192;2022-11-20T03:46:44;47.40;;;26.20;;
39176;SDS011;24904;52.208;21.192;2022-11-20T03:51:47;52.80;;;26.70;;
39176;SDS011;24904;52.208;21.192;2022-11-20T03:56:50;51.00;;;26.60;;
39176;SDS011;24904;52.208;21.192;2022-11-20T04:01:53;47.10;;;26.00;;
39176;SDS011;24904;52.208;21.192;2022-11-20T04:06:56;50.90;;;26.80;;
39176;SDS011;24904;52.208;21.192;2022-11-20T04:11:59;47.00;;;25.20;;
39176;SDS011;24904;52.208;21.192;2022-11-20T04:17:02;50.80;;;25.60;;
39176;SDS011;24904;52.208;21.192;2022-11-20T04:22:06;48.60;;;25.30;;
39176;SDS011;24904;52.208;21.192;2022-11-20T04:27:09;50.10;;;25.40;;
39176;SDS011;24904;52.208;21.192;2022-11-20T04:41:03;47.20;;;24.40;;
39176;SDS011;24904;52.208;21.192;2022-11-20T04:54:31;40.60;;;22.20;;
39176;SDS011;24904;52.208;21.192;2022-11-20T04:59:36;43.40;;;22.70;;
39176;SDS011;24904;52.208;21.192;2022-11-20T05:04:41;36.90;;;21.00;;
39176;SDS011;24904;52.208;21.192;2022-11-20T05:09:46;41.80;;;23.00;;
39176;SDS011;24904;52.208;21.192;2022-11-20T05:14:51;43.20;;;22.00;;
39176;SDS011;24904;52.208;21.192;2022-11-20T05:19:56;40.90;;;22.30;;
39176;SDS011;24904;52.208;21.192;2022-11-20T05:25:01;41.20;;;21.80;;
39176;SDS011;24904;52.208;21.192;2022-11-20T05:30:08;45.00;;;22.60;;
39176;SDS011;24904;52.208;21.192;2022-11-20T05:35:15;33.80;;;19.30;;
39176;SDS011;24904;52.208;21.192;2022-11-20T05:40:20;43.30;;;23.70;;
39176;SDS011;24904;52.208;21.192;2022-11-20T05:45:25;43.10;;;23.50;;
39176;SDS011;24904;52.208;21.192;2022-11-20T05:50:30;39.50;;;20.90;;
39176;SDS011;24904;52.208;21.192;2022-11-20T05:55:35;54.50;;;23.60;;
39176;SDS011;24904;52.208;21.192;2022-11-20T06:00:40;42.10;;;23.50;;
39176;SDS011;24904;52.208;21.192;2022-11-20T06:05:45;47.20;;;23.70;;
39176;SDS011;24904;52.208;21.192;2022-11-20T06:13:34;41.00;;;22.70;;
39176;SDS011;24904;52.208;21.192;2022-11-20T06:18:38;41.00;;;23.10;;
39176;SDS011;24904;52.208;21.192;2022-11-20T06:23:41;43.10;;;22.80;;
39176;SDS011;24904;52.208;21.192;2022-11-20T06:28:45;43.60;;;23.10;;
39176;SDS011;24904;52.208;21.192;2022-11-20T06:33:48;46.80;;;23.30;;
39176;SDS011;24904;52.208;21.192;2022-11-20T06:38:52;43.90;;;22.80;;
39176;SDS011;24904;52.208;21.192;2022-11-20T06:43:55;44.30;;;22.40;;
39176;SDS011;24904;52.208;21.192;2022-11-20T06:48:58;45.60;;;23.60;;
39176;SDS011;24904;52.208;21.192;2022-11-20T06:54:01;43.20;;;23.00;;
39176;SDS011;24904;52.208;21.192;2022-11-20T06:59:04;42.90;;;22.80;;
39176;SDS011;24904;52.208;21.192;2022-11-20T07:04:08;43.60;;;23.80;;
39176;SDS011;24904;52.208;21.192;2022-11-20T07:09:11;45.30;;;24.60;;
39176;SDS011;24904;52.208;21.192;2022-11-20T07:14:14;43.80;;;23.30;;
39176;SDS011;24904;52.208;21.192;2022-11-20T07:19:17;44.60;;;22.80;;
39176;SDS011;24904;52.208;21.192;2022-11-20T07:24:20;43.70;;;22.40;;
39176;SDS011;24904;52.208;21.192;2022-11-20T07:29:23;46.70;;;26.00;;
39176;SDS011;24904;52.208;21.192;2022-11-20T07:34:26;47.90;;;25.90;;
39176;SDS011;24904;52.208;21.192;2022-11-20T07:39:29;40.90;;;22.10;;
39176;SDS011;24904;52.208;21.192;2022-11-20T07:44:32;42.90;;;24.30;;
39176;SDS011;24904;52.208;21.192;2022-11-20T07:49:35;42.10;;;23.40;;
39176;SDS011;24904;52.208;21.192;2022-11-20T07:54:38;42.30;;;23.00;;
39176;SDS011;24904;52.208;21.192;2022-11-20T07:59:41;43.40;;;23.60;;
39176;SDS011;24904;52.208;21.192;2022-11-20T08:04:44;43.30;;;24.50;;
39176;SDS011;24904;52.208;21.192;2022-11-20T08:09:47;44.70;;;24.40;;
39176;SDS011;24904;52.208;21.192;2022-11-20T08:14:50;48.60;;;25.10;;
39176;SDS011;24904;52.208;21.192;2022-11-20T08:19:53;37.90;;;21.40;;
39176;SDS011;24904;52.208;21.192;2022-11-20T08:24:56;43.30;;;24.50;;
39176;SDS011;24904;52.208;21.192;2022-11-20T08:29:59;41.00;;;23.10;;
39176;SDS011;24904;52.208;21.192;2022-11-20T08:35:02;45.40;;;24.60;;
39176;SDS011;24904;52.208;21.192;2022-11-20T08:40:07;36.90;;;21.30;;
39176;SDS011;24904;52.208;21.192;2022-11-20T08:45:12;43.70;;;23.80;;
39176;SDS011;24904;52.208;21.192;2022-11-20T08:50:16;41.60;;;23.50;;
39176;SDS011;24904;52.208;21.192;2022-11-20T08:55:19;34.50;;;19.60;;
39176;SDS011;24904;52.208;21.192;2022-11-20T09:00:23;40.00;;;24.00;;
39176;SDS011;24904;52.208;21.192;2022-11-20T09:05:26;45.20;;;25.50;;
39176;SDS011;24904;52.208;21.192;2022-11-20T09:10:29;41.90;;;21.90;;
39176;SDS011;24904;52.208;21.192;2022-11-20T09:15:32;43.00;;;24.80;;
39176;SDS011;24904;52.208;21.192;2022-11-20T09:20:35;45.30;;;24.20;;
39176;SDS011;24904;52.208;21.192;2022-11-20T09:25:38;44.40;;;22.80;;
39176;SDS011;24904;52.208;21.192;2022-11-20T09:30:41;41.90;;;22.80;;
39176;SDS011;24904;52.208;21.192;2022-11-20T09:35:44;44.00;;;24.50;;
39176;SDS011;24904;52.208;21.192;2022-11-20T09:40:49;42.00;;;23.90;;
39176;SDS011;24904;52.208;21.192;2022-11-20T09:46:03;41.50;;;23.50;;
39176;SDS011;24904;52.208;21.192;2022-11-20T09:51:13;40.00;;;23.40;;
39176;SDS011;24904;52.208;21.192;2022-11-20T09:56:26;41.40;;;23.80;;
39176;SDS011;24904;52.208;21.192;2022-11-20T10:01:32;39.60;;;21.60;;
39176;SDS011;24904;52.208;21.192;2022-11-20T10:06:40;45.20;;;24.10;;
39176;SDS011;24904;52.208;21.192;2022-11-20T10:11:48;44.30;;;24.50;;
39176;SDS011;24904;52.208;21.192;2022-11-20T10:17:02;46.80;;;25.60;;
39176;SDS011;24904;52.208;21.192;2022-11-20T10:22:15;43.80;;;22.90;;
39176;SDS011;24904;52.208;21.192;2022-11-20T10:27:35;43.50;;;24.10;;
39176;SDS011;24904;52.208;21.192;2022-11-20T10:32:51;39.10;;;23.50;;
39176;SDS011;24904;52.208;21.192;2022-11-20T10:37:57;37.80;;;22.80;;
39176;SDS011;24904;52.208;21.192;2022-11-20T10:43:02;33.70;;;19.50;;
39176;SDS011;24904;52.208;21.192;2022-11-20T10:48:49;49.70;;;26.20;;
39176;SDS011;24904;52.208;21.192;2022-11-20T10:53:57;40.00;;;23.60;;
39176;SDS011;24904;52.208;21.192;2022-11-20T10:59:16;39.60;;;21.50;;
39176;SDS011;24904;52.208;21.192;2022-11-20T11:04:36;34.70;;;21.50;;
39176;SDS011;24904;52.208;21.192;2022-11-20T11:09:46;35.20;;;21.40;;
39176;SDS011;24904;52.208;21.192;2022-11-20T11:14:52;39.40;;;22.90;;
39176;SDS011;24904;52.208;21.192;2022-11-20T11:20:00;38.30;;;23.00;;
39176;SDS011;24904;52.208;21.192;2022-11-20T11:30:14;36.40;;;20.30;;
39176;SDS011;24904;52.208;21.192;2022-11-20T11:35:57;40.00;;;23.10;;
39176;SDS011;24904;52.208;21.192;2022-11-20T11:41:03;36.60;;;22.20;;
39176;SDS011;24904;52.208;21.192;2022-11-20T11:46:12;35.20;;;21.70;;
39176;SDS011;24904;52.208;21.192;2022-11-20T11:51:32;34.70;;;22.70;;
39176;SDS011;24904;52.208;21.192;2022-11-20T11:56:48;50.60;;;22.90;;
39176;SDS011;24904;52.208;21.192;2022-11-20T12:06:58;37.50;;;23.40;;
39176;SDS011;24904;52.208;21.192;2022-11-20T12:12:09;40.50;;;22.30;;
39176;SDS011;24904;52.208;21.192;2022-11-20T12:17:18;40.80;;;22.70;;
39176;SDS011;24904;52.208;21.192;2022-11-20T12:22:24;39.20;;;22.60;;
39176;SDS011;24904;52.208;21.192;2022-11-20T12:33:10;40.60;;;22.40;;
39176;SDS011;24904;52.208;21.192;2022-11-20T12:38:28;37.50;;;22.80;;
39176;SDS011;24904;52.208;21.192;2022-11-20T12:43:42;47.60;;;25.60;;
39176;SDS011;24904;52.208;21.192;2022-11-20T12:49:28;39.70;;;22.70;;
39176;SDS011;24904;52.208;21.192;2022-11-20T13:00:14;42.30;;;23.80;;
39176;SDS011;24904;52.208;21.192;2022-11-20T13:05:20;38.70;;;22.30;;
39176;SDS011;24904;52.208;21.192;2022-11-20T13:10:35;39.90;;;23.60;;
39176;SDS011;24904;52.208;21.192;2022-11-20T13:15:47;39.70;;;23.80;;
39176;SDS011;24904;52.208;21.192;2022-11-20T13:20:57;40.00;;;21.40;;
39176;SDS011;24904;52.208;21.192;2022-11-20T13:26:05;39.40;;;23.30;;
39176;SDS011;24904;52.208;21.192;2022-11-20T13:31:25;40.70;;;24.20;;
39176;SDS011;24904;52.208;21.192;2022-11-20T13:36:32;37.70;;;22.90;;
39176;SDS011;24904;52.208;21.192;2022-11-20T13:41:37;39.20;;;23.10;;
39176;SDS011;24904;52.208;21.192;2022-11-20T13:46:42;39.80;;;24.40;;
39176;SDS011;24904;52.208;21.192;2022-11-20T13:51:46;36.90;;;22.20;;
39176;SDS011;24904;52.208;21.192;2022-11-20T13:56:54;38.70;;;21.90;;
39176;SDS011;24904;52.208;21.192;2022-11-20T14:02:10;39.10;;;22.40;;
39176;SDS011;24904;52.208;21.192;2022-11-20T14:10:20;41.00;;;23.40;;
39176;SDS011;24904;52.208;21.192;2022-11-20T14:15:27;36.50;;;22.00;;
39176;SDS011;24904;52.208;21.192;2022-11-20T14:20:31;43.50;;;22.20;;
39176;SDS011;24904;52.208;21.192;2022-11-20T14:25:35;41.60;;;24.30;;
39176;SDS011;24904;52.208;21.192;2022-11-20T14:30:43;43.10;;;24.60;;
39176;SDS011;24904;52.208;21.192;2022-11-20T14:35:49;39.90;;;23.00;;
39176;SDS011;24904;52.208;21.192;2022-11-20T14:40:54;46.50;;;24.70;;
39176;SDS011;24904;52.208;21.192;2022-11-20T14:46:08;41.70;;;23.80;;
39176;SDS011;24904;52.208;21.192;2022-11-20T14:51:15;41.80;;;25.40;;
39176;SDS011;24904;52.208;21.192;2022-11-20T15:05:01;51.20;;;28.50;;
39176;SDS011;24904;52.208;21.192;2022-11-20T15:10:06;53.60;;;28.50;;
39176;SDS011;24904;52.208;21.192;2022-11-20T15:15:11;53.30;;;30.70;;
39176;SDS011;24904;52.208;21.192;2022-11-20T15:20:17;49.80;;;29.80;;
39176;SDS011;24904;52.208;21.192;2022-11-20T15:25:20;57.50;;;31.10;;
39176;SDS011;24904;52.208;21.192;2022-11-20T15:30:25;56.50;;;30.50;;
39176;SDS011;24904;52.208;21.192;2022-11-20T15:35:28;55.60;;;31.10;;
39176;SDS011;24904;52.208;21.192;2022-11-20T15:40:31;55.40;;;30.40;;
39176;SDS011;24904;52.208;21.192;2022-11-20T15:45:36;50.70;;;29.80;;
39176;SDS011;24904;52.208;21.192;2022-11-20T15:50:42;50.50;;;28.30;;
39176;SDS011;24904;52.208;21.192;2022-11-20T15:55:51;50.30;;;28.80;;
39176;SDS011;24904;52.208;21.192;2022-11-20T16:00:54;48.60;;;27.50;;
39176;SDS011;24904;52.208;21.192;2022-11-20T16:05:58;50.00;;;27.30;;
39176;SDS011;24904;52.208;21.192;2022-11-20T16:11:01;49.30;;;27.90;;
39176;SDS011;24904;52.208;21.192;2022-11-20T16:16:05;55.70;;;29.80;;
39176;SDS011;24904;52.208;21.192;2022-11-20T16:21:11;48.70;;;26.60;;
39176;SDS011;24904;52.208;21.192;2022-11-20T16:26:15;49.50;;;26.30;;
39176;SDS011;24904;52.208;21.192;2022-11-20T16:31:20;46.30;;;25.90;;
39176;SDS011;24904;52.208;21.192;2022-11-20T16:36:24;47.10;;;26.90;;
39176;SDS011;24904;52.208;21.192;2022-11-20T16:41:29;47.10;;;27.00;;
39176;SDS011;24904;52.208;21.192;2022-11-20T16:46:34;44.10;;;24.60;;
39176;SDS011;24904;52.208;21.192;2022-11-20T16:51:37;45.90;;;26.00;;
39176;SDS011;24904;52.208;21.192;2022-11-20T16:56:40;43.80;;;23.40;;
39176;SDS011;24904;52.208;21.192;2022-11-20T17:01:43;41.60;;;21.90;;
39176;SDS011;24904;52.208;21.192;2022-11-20T17:06:46;40.90;;;23.10;;
39176;SDS011;24904;52.208;21.192;2022-11-20T17:11:49;43.00;;;23.00;;
39176;SDS011;24904;52.208;21.192;2022-11-20T17:16:52;42.20;;;23.00;;
39176;SDS011;24904;52.208;21.192;2022-11-20T17:21:55;37.00;;;20.10;;
39176;SDS011;24904;52.208;21.192;2022-11-20T17:26:58;41.30;;;21.80;;
39176;SDS011;24904;52.208;21.192;2022-11-20T17:32:01;43.90;;;23.70;;
39176;SDS011;24904;52.208;21.192;2022-11-20T17:37:04;40.30;;;22.40;;
39176;SDS011;24904;52.208;21.192;2022-11-20T17:42:25;41.60;;;23.10;;
39176;SDS011;24904;52.208;21.192;2022-11-20T17:47:37;43.80;;;24.10;;
39176;SDS011;24904;52.208;21.192;2022-11-20T17:52:42;42.00;;;23.60;;
39176;SDS011;24904;52.208;21.192;2022-11-20T17:57:48;41.70;;;22.60;;
39176;SDS011;24904;52.208;21.192;2022-11-20T18:08:00;39.40;;;22.90;;
39176;SDS011;24904;52.208;21.192;2022-11-20T18:13:06;47.30;;;26.50;;
39176;SDS011;24904;52.208;21.192;2022-11-20T18:18:11;50.20;;;26.10;;
39176;SDS011;24904;52.208;21.192;2022-11-20T18:23:16;47.80;;;25.80;;
39176;SDS011;24904;52.208;21.192;2022-11-20T18:28:21;46.80;;;25.80;;
39176;SDS011;24904;52.208;21.192;2022-11-20T18:33:26;43.20;;;24.30;;
39176;SDS011;24904;52.208;21.192;2022-11-20T18:38:32;42.40;;;25.00;;
39176;SDS011;24904;52.208;21.192;2022-11-20T18:43:37;48.40;;;26.30;;
39176;SDS011;24904;52.208;21.192;2022-11-20T18:48:59;48.20;;;25.40;;
39176;SDS011;24904;52.208;21.192;2022-11-20T18:54:05;37.60;;;20.80;;
39176;SDS011;24904;52.208;21.192;2022-11-20T18:59:10;43.10;;;24.10;;
39176;SDS011;24904;52.208;21.192;2022-11-20T19:04:16;44.50;;;24.90;;
39176;SDS011;24904;52.208;21.192;2022-11-20T19:09:22;46.60;;;24.60;;
39176;SDS011;24904;52.208;21.192;2022-11-20T19:14:27;46.40;;;26.30;;
39176;SDS011;24904;52.208;21.192;2022-11-20T19:19:32;50.10;;;26.80;;
39176;SDS011;24904;52.208;21.192;2022-11-20T19:24:37;46.80;;;26.20;;
39176;SDS011;24904;52.208;21.192;2022-11-20T19:29:42;48.30;;;27.10;;
39176;SDS011;24904;52.208;21.192;2022-11-20T19:34:47;49.10;;;26.30;;
39176;SDS011;24904;52.208;21.192;2022-11-20T19:39:52;47.30;;;25.20;;
39176;SDS011;24904;52.208;21.192;2022-11-20T19:45:00;44.90;;;25.00;;
39176;SDS011;24904;52.208;21.192;2022-11-20T19:50:06;47.40;;;25.50;;
39176;SDS011;24904;52.208;21.192;2022-11-20T19:55:11;44.10;;;25.90;;
39176;SDS011;24904;52.208;21.192;2022-11-20T20:00:17;44.60;;;25.10;;
39176;SDS011;24904;52.208;21.192;2022-11-20T20:05:22;53.30;;;28.40;;
39176;SDS011;24904;52.208;21.192;2022-11-20T20:10:27;55.60;;;28.20;;
39176;SDS011;24904;52.208;21.192;2022-11-20T20:15:32;54.30;;;28.40;;
39176;SDS011;24904;52.208;21.192;2022-11-20T20:20:41;56.00;;;29.60;;
39176;SDS011;24904;52.208;21.192;2022-11-20T20:25:47;46.70;;;26.70;;
39176;SDS011;24904;52.208;21.192;2022-11-20T20:30:53;50.90;;;27.10;;
39176;SDS011;24904;52.208;21.192;2022-11-20T20:35:58;51.00;;;28.40;;
39176;SDS011;24904;52.208;21.192;2022-11-20T20:41:03;49.40;;;26.50;;
39176;SDS011;24904;52.208;21.192;2022-11-20T20:46:09;52.80;;;27.90;;
39176;SDS011;24904;52.208;21.192;2022-11-20T20:51:32;54.80;;;27.30;;
39176;SDS011;24904;52.208;21.192;2022-11-20T20:56:37;52.40;;;28.20;;
39176;SDS011;24904;52.208;21.192;2022-11-20T21:01:42;46.60;;;25.20;;
39176;SDS011;24904;52.208;21.192;2022-11-20T21:06:47;54.80;;;29.20;;
39176;SDS011;24904;52.208;21.192;2022-11-20T21:11:52;55.50;;;29.70;;
39176;SDS011;24904;52.208;21.192;2022-11-20T21:16:57;57.50;;;31.50;;
39176;SDS011;24904;52.208;21.192;2022-11-20T21:22:02;58.70;;;30.60;;
39176;SDS011;24904;52.208;21.192;2022-11-20T21:27:07;56.60;;;28.10;;
39176;SDS011;24904;52.208;21.192;2022-11-20T21:32:13;52.80;;;29.50;;
39176;SDS011;24904;52.208;21.192;2022-11-20T21:37:18;60.10;;;31.30;;
39176;SDS011;24904;52.208;21.192;2022-11-20T21:42:23;60.70;;;30.90;;
39176;SDS011;24904;52.208;21.192;2022-11-20T21:47:28;66.00;;;33.70;;
39176;SDS011;24904;52.208;21.192;2022-11-20T21:52:33;64.50;;;33.30;;
39176;SDS011;24904;52.208;21.192;2022-11-20T21:57:39;59.20;;;32.00;;
39176;SDS011;24904;52.208;21.192;2022-11-20T22:02:44;60.80;;;32.50;;
39176;SDS011;24904;52.208;21.192;2022-11-20T22:07:49;61.80;;;32.80;;
39176;SDS011;24904;52.208;21.192;2022-11-20T22:12:54;63.90;;;32.10;;
39176;SDS011;24904;52.208;21.192;2022-11-20T22:18:20;60.20;;;32.80;;
39176;SDS011;24904;52.208;21.192;2022-11-20T22:23:25;64.40;;;34.20;;
39176;SDS011;24904;52.208;21.192;2022-11-20T22:28:30;68.50;;;34.70;;
39176;SDS011;24904;52.208;21.192;2022-11-20T22:33:35;69.90;;;34.60;;
39176;SDS011;24904;52.208;21.192;2022-11-20T22:38:41;63.30;;;34.90;;
39176;SDS011;24904;52.208;21.192;2022-11-20T22:43:46;61.00;;;34.10;;
39176;SDS011;24904;52.208;21.192;2022-11-20T22:53:59;69.60;;;34.80;;
39176;SDS011;24904;52.208;21.192;2022-11-20T22:59:05;62.20;;;33.90;;
39176;SDS011;24904;52.208;21.192;2022-11-20T23:04:10;68.40;;;36.00;;
39176;SDS011;24904;52.208;21.192;2022-11-20T23:09:16;65.90;;;34.10;;
39176;SDS011;24904;52.208;21.192;2022-11-20T23:14:22;63.10;;;33.10;;
39176;SDS011;24904;52.208;21.192;2022-11-20T23:19:27;68.10;;;34.90;;
39176;SDS011;24904;52.208;21.192;2022-11-20T23:24:32;68.70;;;34.30;;
39176;SDS011;24904;52.208;21.192;2022-11-20T23:29:37;62.50;;;32.80;;
39176;SDS011;24904;52.208;21.192;2022-11-20T23:34:42;61.10;;;32.90;;
39176;SDS011;24904;52.208;21.192;2022-11-20T23:39:47;62.70;;;33.90;;
39176;SDS011;24904;52.208;21.192;2022-11-20T23:44:52;73.00;;;35.60;;
39176;SDS011;24904;52.208;21.192;2022-11-20T23:49:57;69.20;;;34.90;;
39176;SDS011;24904;52.208;21.192;2022-11-20T23:55:02;70.20;;;35.90;;
